Time;durP1;ratioP1;P1;durP2;ratioP2;P2;SDS_P1;SDS_P2;PMS_P1;PMS_P2;Temp;Humidity;BMP_temperature;BMP_pressure;BME280_temperature;BME280_humidity;BME280_pressure;Samples;Min_cycle;Max_cycle;Signal;HPM_P1;HPM_P2
2020/12/30 00:01:57;;;;;;;3.67;2.22;;;;;;;0.44;64.92;98449.81;10487579;28;20079;-65
2020/12/30 00:06:58;;;;;;;3.10;2.10;;;;;;;0.23;65.13;98451.03;10505662;28;20090;-66
2020/12/30 00:12:00;;;;;;;1.45;1.17;;;;;;;0.71;64.00;98453.72;10506613;28;20063;-66
2020/12/30 00:17:03;;;;;;;1.50;1.00;;;;;;;1.43;62.08;98449.75;10505791;28;20052;-66
2020/12/30 00:22:05;;;;;;;1.92;1.00;;;;;;;1.75;61.50;98462.88;10505653;28;20064;-66
2020/12/30 00:27:07;;;;;;;1.75;0.82;;;;;;;1.83;61.87;98460.13;10503802;28;20123;-66
2020/12/30 00:32:10;;;;;;;2.08;1.17;;;;;;;2.02;61.73;98451.03;10504037;28;20043;-65
2020/12/30 00:37:12;;;;;;;1.98;1.33;;;;;;;2.17;62.04;98447.25;10503741;28;20049;-67
2020/12/30 00:42:13;;;;;;;2.65;1.20;;;;;;;2.50;61.01;98450.78;10503386;28;20079;-64
2020/12/30 00:47:15;;;;;;;1.75;0.93;;;;;;;2.38;62.22;98451.06;10486763;28;20488;-64
2020/12/30 00:52:16;;;;;;;3.10;1.50;;;;;;;2.52;62.17;98440.34;10485130;28;20043;-66
2020/12/30 00:57:21;;;;;;;2.22;1.30;;;;;;;2.67;61.83;98439.13;10486107;28;20067;-66
2020/12/30 01:02:22;;;;;;;3.47;1.40;;;;;;;2.74;62.23;98448.44;10502422;28;20044;-66
2020/12/30 01:07:25;;;;;;;3.25;1.35;;;;;;;2.73;62.25;98457.13;10485010;28;20044;-66
2020/12/30 01:12:26;;;;;;;3.53;1.00;;;;;;;2.65;62.62;98453.88;10501975;28;20048;-65
2020/12/30 01:17:27;;;;;;;1.88;1.02;;;;;;;2.67;62.64;98452.97;10502602;28;20098;-65
2020/12/30 01:22:28;;;;;;;2.13;1.20;;;;;;;2.75;62.50;98460.56;10501787;28;20040;-64
2020/12/30 01:27:29;;;;;;;2.72;1.30;;;;;;;2.90;62.04;98452.38;10501568;28;20101;-65
2020/12/30 01:32:31;;;;;;;2.85;1.00;;;;;;;2.76;62.65;98451.88;10502270;28;20079;-65
2020/12/30 01:37:33;;;;;;;3.20;1.23;;;;;;;2.72;62.86;98440.72;10503412;28;20166;-65
2020/12/30 01:42:43;;;;;;;2.22;1.05;;;;;;;2.87;62.17;98443.78;10501602;28;20547;-66
2020/12/30 01:47:48;;;;;;;2.22;0.90;;;;;;;2.85;62.20;98450.78;10500022;28;20052;-66
2020/12/30 01:52:49;;;;;;;1.90;0.90;;;;;;;3.14;61.32;98437.88;10500883;28;20033;-66
2020/12/30 01:57:50;;;;;;;1.40;0.90;;;;;;;3.03;61.37;98445.09;10502273;28;20048;-66
2020/12/30 02:02:59;;;;;;;1.42;0.70;;;;;;;2.90;61.96;98446.31;10525386;22;20058;-64
2020/12/30 02:08:02;;;;;;;1.60;1.00;;;;;;;3.01;61.64;98449.47;10539639;28;20052;-64
2020/12/30 02:13:03;;;;;;;1.92;0.90;;;;;;;2.82;62.07;98451.69;10539758;28;20378;-64
2020/12/30 02:18:04;;;;;;;2.85;0.98;;;;;;;2.94;61.65;98458.34;10538790;28;20073;-64
2020/12/30 02:23:08;;;;;;;2.05;1.00;;;;;;;2.96;61.71;98457.38;10538948;28;20444;-64
2020/12/30 02:28:11;;;;;;;2.25;0.95;;;;;;;3.02;61.56;98462.44;10540172;28;20484;-64
2020/12/30 02:33:12;;;;;;;1.52;1.00;;;;;;;2.66;62.22;98465.97;10538499;28;20044;-63
2020/12/30 02:38:14;;;;;;;2.67;1.08;;;;;;;2.89;61.75;98455.84;10539284;28;20048;-65
2020/12/30 02:43:16;;;;;;;1.85;0.88;;;;;;;2.76;61.69;98459.66;10538680;28;20040;-63
2020/12/30 02:48:17;;;;;;;1.70;0.80;;;;;;;2.79;61.72;98457.00;10539243;28;20460;-64
2020/12/30 02:53:19;;;;;;;2.50;1.15;;;;;;;2.61;61.85;98460.91;10537906;28;20564;-64
2020/12/30 02:58:20;;;;;;;2.15;0.80;;;;;;;2.65;61.87;98459.91;10537978;28;20040;-63
2020/12/30 03:03:21;;;;;;;1.00;0.60;;;;;;;2.65;61.69;98459.91;10538255;28;20060;-64
2020/12/30 03:08:23;;;;;;;2.30;0.88;;;;;;;2.37;62.40;98467.53;10545067;28;20047;-64
2020/12/30 03:13:24;;;;;;;1.50;0.70;;;;;;;2.45;62.19;98467.34;10544906;28;20520;-65
2020/12/30 03:18:25;;;;;;;1.48;0.73;;;;;;;2.49;62.09;98479.34;10545288;28;20044;-64
2020/12/30 03:23:26;;;;;;;1.08;0.70;;;;;;;2.73;61.29;98472.69;10546004;28;20071;-65
2020/12/30 03:28:27;;;;;;;2.22;0.82;;;;;;;2.58;61.50;98475.69;10544631;28;20052;-63
2020/12/30 03:33:29;;;;;;;1.35;0.70;;;;;;;2.46;62.06;98476.81;10544725;28;20044;-64
2020/12/30 03:38:30;;;;;;;2.92;0.80;;;;;;;2.16;62.63;98480.97;10544524;28;20044;-64
2020/12/30 03:43:31;;;;;;;1.40;0.80;;;;;;;2.10;62.73;98481.13;10545588;28;20093;-64
2020/12/30 03:48:33;;;;;;;1.38;0.70;;;;;;;2.18;62.66;98464.50;10544342;28;20047;-64
2020/12/30 03:53:34;;;;;;;1.88;0.80;;;;;;;2.20;62.60;98460.13;10542777;28;20105;-64
2020/12/30 03:58:35;;;;;;;2.72;0.90;;;;;;;2.17;62.90;98462.81;10544823;28;20127;-64
2020/12/30 04:03:36;;;;;;;2.92;0.93;;;;;;;2.33;62.13;98452.06;10543580;28;20058;-64
2020/12/30 04:08:37;;;;;;;0.98;0.88;;;;;;;2.44;61.77;98450.09;10543883;28;20485;-65
2020/12/30 04:13:38;;;;;;;2.88;1.20;;;;;;;2.45;61.58;98446.59;10543302;28;20127;-64
2020/12/30 04:18:40;;;;;;;1.25;0.80;;;;;;;2.49;61.42;98459.44;10542699;28;20051;-63
2020/12/30 04:23:41;;;;;;;2.40;0.85;;;;;;;2.51;61.11;98468.03;10542301;28;20036;-63
2020/12/30 04:28:42;;;;;;;1.98;1.05;;;;;;;2.56;60.97;98467.91;10542189;28;20051;-64
2020/12/30 04:33:43;;;;;;;2.75;1.10;;;;;;;2.48;61.08;98475.91;10541586;28;20075;-63
2020/12/30 04:38:45;;;;;;;2.08;0.82;;;;;;;2.38;61.50;98476.16;10541774;28;20130;-63
2020/12/30 04:43:49;;;;;;;1.92;1.00;;;;;;;2.50;61.00;98481.91;10542198;28;20047;-63
2020/12/30 04:48:51;;;;;;;1.75;0.88;;;;;;;2.46;60.79;98475.06;10541221;28;20123;-63
2020/12/30 04:53:58;;;;;;;2.60;1.05;;;;;;;2.18;61.90;98492.19;10541283;28;20040;-63
2020/12/30 04:59:00;;;;;;;4.78;1.00;;;;;;;2.17;61.62;98495.63;10540555;28;20128;-63
2020/12/30 05:04:02;;;;;;;3.13;1.33;;;;;;;1.93;62.40;98505.66;10540328;28;20408;-63
2020/12/30 05:09:03;;;;;;;1.88;0.88;;;;;;;1.99;62.24;98510.75;10540315;28;20044;-65
2020/12/30 05:14:04;;;;;;;2.13;0.90;;;;;;;1.64;62.73;98524.41;10540441;28;20101;-64
2020/12/30 05:19:05;;;;;;;1.95;0.88;;;;;;;1.48;63.63;98534.22;10540230;28;20089;-64
2020/12/30 05:24:08;;;;;;;2.70;1.00;;;;;;;1.20;64.17;98533.03;10540994;28;20428;-64
2020/12/30 05:29:10;;;;;;;1.30;0.90;;;;;;;1.06;64.52;98540.16;10539749;28;20047;-64
2020/12/30 05:34:12;;;;;;;3.15;1.17;;;;;;;0.83;65.14;98549.16;10540262;28;20119;-63
2020/12/30 05:39:33;;;;;;;2.67;1.13;;;;;;;0.59;65.71;98550.44;10540254;28;20085;-63
2020/12/30 05:44:34;;;;;;;1.77;1.10;;;;;;;0.47;66.01;98556.63;10539790;28;20060;-63
2020/12/30 05:49:35;;;;;;;2.22;1.20;;;;;;;0.37;66.70;98555.06;10539855;28;20122;-63
2020/12/30 05:54:51;;;;;;;2.45;1.40;;;;;;;0.13;67.06;98556.25;10556391;28;20048;-63
2020/12/30 05:59:55;;;;;;;3.33;1.30;;;;;;;0.38;67.05;98571.44;10540237;28;20044;-63
2020/12/30 06:05:18;;;;;;;3.08;1.33;;;;;;;0.27;66.75;98579.34;10540126;28;20122;-64
2020/12/30 06:10:21;;;;;;;1.65;1.05;;;;;;;0.06;67.09;98575.31;10539200;28;20572;-64
2020/12/30 06:15:26;;;;;;;2.00;1.15;;;;;;;0.09;67.51;98589.91;10538578;28;20073;-63
2020/12/30 06:20:38;;;;;;;2.10;1.42;;;;;;;0.02;67.32;98591.72;10539847;28;20040;-64
2020/12/30 06:25:42;;;;;;;1.90;1.50;;;;;;;-0.18;67.49;98606.59;10539731;28;20036;-64
2020/12/30 06:30:45;;;;;;;14.43;12.27;;;;;;;-0.42;68.75;98603.41;10539250;28;20087;-64
2020/12/30 06:35:46;;;;;;;10.32;9.32;;;;;;;-0.26;68.62;98611.84;10539180;28;20040;-63
2020/12/30 06:41:17;;;;;;;6.45;5.78;;;;;;;-0.31;68.33;98621.34;10542936;28;20128;-63
2020/12/30 06:46:21;;;;;;;5.00;4.15;;;;;;;-0.24;68.33;98625.59;10458927;28;20570;-64
2020/12/30 06:51:23;;;;;;;3.78;2.70;;;;;;;-0.29;68.64;98625.66;10458462;28;20491;-63
2020/12/30 06:56:40;;;;;;;4.35;2.50;;;;;;;-0.14;68.29;98624.63;10458959;28;20053;-63
2020/12/30 07:02:08;;;;;;;2.77;1.97;;;;;;;-0.21;68.24;98630.72;10458434;28;20081;-64
2020/12/30 07:07:20;;;;;;;3.00;1.65;;;;;;;-0.14;68.56;98636.69;10456704;28;20073;-63
2020/12/30 07:12:21;;;;;;;3.28;2.28;;;;;;;-0.32;68.81;98645.47;10458075;28;20118;-64
2020/12/30 07:17:22;;;;;;;3.95;1.98;;;;;;;-0.49;69.03;98658.53;10458717;28;20199;-64
2020/12/30 07:22:26;;;;;;;3.03;1.77;;;;;;;-0.26;69.18;98659.19;10519429;28;20097;-63
2020/12/30 07:27:28;;;;;;;11.55;3.22;;;;;;;-0.35;68.84;98667.03;10544794;28;20044;-63
2020/12/30 07:32:31;;;;;;;3.63;2.00;;;;;;;-0.05;68.94;98673.59;10545299;28;20135;-63
2020/12/30 07:37:33;;;;;;;3.13;2.08;;;;;;;0.04;68.08;98680.38;10544606;28;20178;-63
2020/12/30 07:42:34;;;;;;;6.22;3.63;;;;;;;0.17;68.51;98678.50;10544819;28;20439;-64
2020/12/30 07:47:35;;;;;;;3.70;2.50;;;;;;;0.04;68.55;98679.53;10544417;28;20127;-63
2020/12/30 07:52:36;;;;;;;4.00;2.53;;;;;;;0.14;68.27;98686.31;10543934;28;20463;-63
2020/12/30 07:57:38;;;;;;;4.35;2.25;;;;;;;0.25;68.01;98690.47;10543606;28;20078;-63
2020/12/30 08:02:39;;;;;;;2.90;2.15;;;;;;;0.26;68.05;98691.31;10543037;28;20125;-63
2020/12/30 08:07:40;;;;;;;3.78;3.30;;;;;;;0.44;67.46;98703.16;10543372;28;20066;-63
2020/12/30 08:12:41;;;;;;;18.95;3.65;;;;;;;0.73;67.27;98713.16;10543715;28;20040;-63
2020/12/30 08:17:42;;;;;;;5.00;3.45;;;;;;;1.11;66.03;98706.59;10542551;28;20090;-63
2020/12/30 08:22:43;;;;;;;4.32;2.95;;;;;;;0.95;66.09;98711.97;10542102;28;20476;-63
2020/12/30 08:27:45;;;;;;;4.35;3.08;;;;;;;1.00;65.89;98715.34;10542754;28;20048;-63
2020/12/30 08:32:57;;;;;;;5.70;4.35;;;;;;;0.89;66.24;98714.66;10541850;28;20040;-64
2020/12/30 08:38:18;;;;;;;5.82;4.20;;;;;;;0.98;65.86;98716.25;10541588;28;20048;-63
2020/12/30 08:43:26;;;;;;;7.03;5.43;;;;;;;1.06;65.85;98727.34;10541764;28;20515;-63
2020/12/30 08:48:31;;;;;;;7.13;4.78;;;;;;;1.33;65.30;98731.28;10541710;28;20052;-63
2020/12/30 08:53:33;;;;;;;5.75;4.20;;;;;;;1.35;65.07;98739.00;10541489;28;20130;-65
2020/12/30 08:58:35;;;;;;;5.07;4.10;;;;;;;1.13;65.78;98746.22;10540855;28;20051;-64
2020/12/30 09:03:36;;;;;;;5.13;4.22;;;;;;;0.93;66.00;98747.38;10539657;28;20036;-64
2020/12/30 09:08:37;;;;;;;5.55;4.28;;;;;;;1.09;65.98;98752.31;10538977;28;20037;-64
2020/12/30 09:13:38;;;;;;;6.75;5.07;;;;;;;1.36;65.67;98762.28;10526261;28;20046;-64
2020/12/30 09:18:40;;;;;;;6.00;5.20;;;;;;;1.20;65.77;98764.25;10498802;28;20516;-64
2020/12/30 09:23:41;;;;;;;6.00;5.38;;;;;;;1.13;66.00;98759.19;10497687;28;20460;-64
2020/12/30 09:28:42;;;;;;;7.28;6.00;;;;;;;1.20;65.97;98760.81;10498460;28;20040;-64
2020/12/30 09:33:43;;;;;;;6.72;5.63;;;;;;;1.31;65.60;98758.06;10497929;28;20549;-65
2020/12/30 09:38:44;;;;;;;5.70;4.90;;;;;;;1.44;64.85;98757.84;10498499;28;20444;-64
2020/12/30 09:43:46;;;;;;;8.60;5.32;;;;;;;1.24;65.57;98749.53;10498101;28;20044;-63
2020/12/30 09:48:48;;;;;;;6.70;5.40;;;;;;;1.43;65.42;98747.50;10498373;28;20051;-63
2020/12/30 09:53:51;;;;;;;5.57;4.57;;;;;;;1.26;65.74;98742.59;10498033;28;20053;-63
2020/12/30 09:58:52;;;;;;;6.38;4.65;;;;;;;1.30;65.85;98746.84;10497356;28;20501;-63
2020/12/30 10:03:54;;;;;;;6.45;5.30;;;;;;;1.29;66.29;98746.88;10497455;28;20060;-63
2020/12/30 10:08:55;;;;;;;8.00;4.78;;;;;;;1.79;64.88;98740.88;10497886;28;20094;-64
2020/12/30 10:13:56;;;;;;;6.45;4.60;;;;;;;1.92;64.98;98721.63;10501486;28;20040;-64
2020/12/30 10:18:58;;;;;;;7.00;5.28;;;;;;;2.06;64.91;98725.72;10505976;28;20468;-64
2020/12/30 10:23:59;;;;;;;6.25;4.45;;;;;;;2.09;64.51;98725.66;10505536;28;20508;-64
2020/12/30 10:29:00;;;;;;;5.97;4.47;;;;;;;2.46;63.48;98723.22;10505657;28;20140;-65
2020/12/30 10:34:01;;;;;;;5.65;4.57;;;;;;;2.57;63.35;98725.56;10505603;28;20064;-64
2020/12/30 10:39:03;;;;;;;5.63;4.45;;;;;;;2.65;63.43;98728.88;10506467;28;20099;-64
2020/12/30 10:44:05;;;;;;;6.85;5.10;;;;;;;2.55;64.00;98728.22;10504699;28;20098;-64
2020/12/30 10:49:11;;;;;;;7.83;5.40;;;;;;;3.05;62.53;98726.28;10505625;28;20075;-63
2020/12/30 10:54:13;;;;;;;9.00;5.25;;;;;;;3.42;62.10;98715.06;10504248;28;20456;-63
2020/12/30 10:59:15;;;;;;;7.38;4.93;;;;;;;3.58;61.05;98705.97;10503610;28;20044;-63
2020/12/30 11:04:16;;;;;;;8.00;5.82;;;;;;;3.73;60.75;98702.16;10503530;28;20128;-63
2020/12/30 11:09:18;;;;;;;6.60;5.55;;;;;;;3.71;60.68;98709.13;10503815;28;20044;-63
2020/12/30 11:14:19;;;;;;;7.20;5.03;;;;;;;3.91;61.07;98701.69;10503468;28;20056;-63
2020/12/30 11:19:20;;;;;;;10.25;5.25;;;;;;;7.29;56.16;98693.16;10502533;28;20466;-63
2020/12/30 11:24:21;;;;;;;6.95;5.20;;;;;;;10.20;47.01;98674.59;10501789;28;20451;-65
2020/12/30 11:29:23;;;;;;;6.15;4.82;;;;;;;11.61;45.89;98677.44;10502829;28;20045;-64
2020/12/30 11:34:24;;;;;;;6.72;5.00;;;;;;;14.30;39.26;98675.47;10502976;28;20064;-64
2020/12/30 11:39:25;;;;;;;5.25;4.43;;;;;;;15.35;37.20;98677.75;10502447;28;20041;-65
2020/12/30 11:44:27;;;;;;;5.97;4.10;;;;;;;15.80;35.29;98675.34;10502599;28;20044;-65
2020/12/30 11:49:28;;;;;;;6.97;5.07;;;;;;;15.78;37.06;98672.81;10502170;28;20049;-64
2020/12/30 11:54:29;;;;;;;6.43;5.43;;;;;;;14.18;38.60;98678.94;10502547;28;20072;-65
2020/12/30 11:59:31;;;;;;;5.85;4.82;;;;;;;13.00;42.05;98676.09;10500809;28;20048;-65
2020/12/30 12:04:32;;;;;;;4.82;4.15;;;;;;;11.68;41.74;98670.03;10502248;28;20139;-65
2020/12/30 12:09:33;;;;;;;7.78;4.63;;;;;;;9.96;44.39;98675.84;10501335;28;20094;-64
2020/12/30 12:14:34;;;;;;;6.35;4.70;;;;;;;8.91;47.13;98681.88;10502999;28;20064;-68
2020/12/30 12:19:36;;;;;;;5.07;3.60;;;;;;;10.08;45.27;98685.72;10502925;28;20140;-64
2020/12/30 12:24:37;;;;;;;6.97;4.68;;;;;;;9.55;45.72;98678.78;10500698;28;20071;-64
2020/12/30 12:29:44;;;;;;;5.38;4.88;;;;;;;9.45;45.74;98678.38;10499971;28;20482;-64
2020/12/30 12:34:52;;;;;;;6.75;4.72;;;;;;;8.29;49.71;98687.22;10500495;28;20132;-64
2020/12/30 12:39:54;;;;;;;6.55;5.45;;;;;;;7.52;50.49;98693.97;10500754;28;20498;-63
2020/12/30 12:44:56;;;;;;;6.85;5.68;;;;;;;6.65;53.37;98692.19;10500807;28;20545;-65
2020/12/30 12:49:57;;;;;;;8.52;5.32;;;;;;;6.25;53.46;98691.03;10500651;28;20048;-64
2020/12/30 12:54:58;;;;;;;6.10;4.82;;;;;;;5.90;54.39;98692.22;10499667;28;20040;-64
2020/12/30 12:59:59;;;;;;;7.80;4.90;;;;;;;5.83;54.89;98696.78;10496607;28;20068;-64
2020/12/30 13:05:00;;;;;;;6.82;5.07;;;;;;;5.57;55.80;98695.03;10498422;28;20068;-64
2020/12/30 13:10:02;;;;;;;6.13;4.35;;;;;;;5.48;56.03;98703.16;10497872;28;20535;-65
2020/12/30 13:15:04;;;;;;;5.45;4.03;;;;;;;5.59;56.04;98708.88;10498148;28;20075;-64
2020/12/30 13:20:05;;;;;;;9.07;5.30;;;;;;;5.76;55.30;98697.91;10498529;28;20119;-63
2020/12/30 13:25:06;;;;;;;5.95;4.60;;;;;;;5.98;55.72;98704.13;10497994;28;20032;-63
2020/12/30 13:30:08;;;;;;;6.97;4.80;;;;;;;5.66;56.34;98710.38;10499052;28;20048;-63
2020/12/30 13:35:09;;;;;;;5.60;4.28;;;;;;;5.94;55.66;98710.34;10499106;28;20124;-63
2020/12/30 13:40:10;;;;;;;4.65;4.07;;;;;;;5.93;55.19;98719.09;10498163;28;20041;-66
2020/12/30 13:45:11;;;;;;;5.53;4.55;;;;;;;5.98;55.93;98730.22;10498955;28;20049;-64
2020/12/30 13:50:12;;;;;;;6.50;4.68;;;;;;;5.79;56.31;98739.50;10497483;28;20127;-64
2020/12/30 13:55:14;;;;;;;5.25;3.42;;;;;;;5.86;55.90;98741.00;10495948;28;20074;-63
2020/12/30 14:00:15;;;;;;;2.88;2.10;;;;;;;5.88;55.78;98746.16;10496614;28;20072;-65
2020/12/30 14:05:16;;;;;;;1.92;1.52;;;;;;;6.19;54.40;98748.63;10495657;28;20498;-65
2020/12/30 14:10:17;;;;;;;1.50;1.40;;;;;;;6.17;54.68;98748.69;10497575;28;20449;-64
2020/12/30 14:15:20;;;;;;;1.48;1.33;;;;;;;6.26;54.33;98744.91;10495935;28;20078;-63
2020/12/30 14:20:21;;;;;;;2.97;1.63;;;;;;;6.25;54.15;98746.66;10496847;28;20123;-63
2020/12/30 14:25:22;;;;;;;1.83;1.48;;;;;;;6.11;54.59;98759.34;10496338;28;20037;-64
2020/12/30 14:30:24;;;;;;;2.78;1.50;;;;;;;5.93;55.13;98759.94;10494837;28;20498;-65
2020/12/30 14:35:26;;;;;;;1.63;1.40;;;;;;;5.88;55.00;98767.88;10495990;28;20040;-63
2020/12/30 14:40:27;;;;;;;2.15;1.40;;;;;;;5.78;55.30;98771.69;10496010;28;20044;-63
2020/12/30 14:45:28;;;;;;;4.32;3.85;;;;;;;5.83;56.29;98777.63;10493444;28;20065;-63
2020/12/30 14:50:29;;;;;;;5.07;3.97;;;;;;;5.65;57.21;98781.66;10495473;28;20053;-64
2020/12/30 14:55:30;;;;;;;8.45;6.65;;;;;;;5.54;56.88;98775.97;10495615;28;20098;-62
2020/12/30 15:00:32;;;;;;;6.28;5.18;;;;;;;5.51;57.55;98792.53;10496985;28;20044;-59
2020/12/30 15:05:34;;;;;;;4.07;3.60;;;;;;;5.29;57.80;98797.53;10503133;28;20047;-61
2020/12/30 15:10:35;;;;;;;7.22;5.65;;;;;;;5.02;58.89;98811.38;10502245;28;20091;-63
2020/12/30 15:15:36;;;;;;;5.03;3.53;;;;;;;5.07;58.52;98815.56;10503176;28;20531;-63
2020/12/30 15:20:38;;;;;;;6.05;4.18;;;;;;;4.92;59.24;98822.97;10504051;28;20410;-64
2020/12/30 15:25:39;;;;;;;3.80;3.38;;;;;;;4.74;59.58;98833.00;10502439;28;20083;-63
2020/12/30 15:30:40;;;;;;;3.67;3.05;;;;;;;4.84;59.43;98835.34;10501364;28;20071;-63
2020/12/30 15:35:42;;;;;;;3.67;2.47;;;;;;;4.88;59.33;98845.63;10502201;28;20037;-63
2020/12/30 15:40:44;;;;;;;3.20;2.90;;;;;;;5.00;59.07;98849.63;10500890;28;20056;-63
2020/12/30 15:45:49;;;;;;;2.63;2.20;;;;;;;4.81;59.58;98851.91;10501524;28;20028;-63
2020/12/30 15:50:51;;;;;;;2.00;1.65;;;;;;;4.59;60.11;98863.78;10501459;28;20041;-63
2020/12/30 15:55:52;;;;;;;2.55;1.75;;;;;;;4.58;60.01;98870.75;10501716;28;20123;-65
2020/12/30 16:00:54;;;;;;;3.05;1.60;;;;;;;4.65;59.92;98871.41;10500994;28;20052;-64
2020/12/30 16:05:55;;;;;;;2.63;1.95;;;;;;;4.43;60.50;98879.81;10502759;28;20158;-64
2020/12/30 16:10:57;;;;;;;2.00;1.70;;;;;;;4.28;60.70;98888.81;10500655;28;20500;-64
2020/12/30 16:15:58;;;;;;;2.35;1.90;;;;;;;4.07;61.41;98891.09;10500380;28;20071;-63
2020/12/30 16:21:00;;;;;;;2.30;1.77;;;;;;;4.05;61.45;98897.19;10500341;28;20044;-65
2020/12/30 16:26:01;;;;;;;2.80;2.30;;;;;;;4.04;61.56;98895.47;10500397;28;20068;-66
2020/12/30 16:31:04;;;;;;;2.72;2.53;;;;;;;3.97;61.82;98903.47;10500127;28;20553;-65
2020/12/30 16:36:05;;;;;;;4.68;3.40;;;;;;;3.99;62.19;98907.75;10499695;28;20124;-64
2020/12/30 16:41:07;;;;;;;5.35;4.53;;;;;;;3.94;62.21;98914.81;10500233;28;20106;-65
2020/12/30 16:46:08;;;;;;;5.32;4.78;;;;;;;3.84;62.51;98920.22;10499107;28;20119;-65
2020/12/30 16:51:13;;;;;;;6.57;5.90;;;;;;;3.88;62.26;98927.91;10499117;28;20052;-64
2020/12/30 16:56:20;;;;;;;3.38;3.08;;;;;;;3.87;61.59;98927.97;10498605;28;20484;-64
2020/12/30 17:01:21;;;;;;;;;;;;;;;3.88;61.65;98929.66;10497717;28;20148;-64
2020/12/30 17:06:22;;;;;;;12.73;11.65;;;;;;;3.86;61.33;98932.31;10499175;28;20014;-64
2020/12/30 17:11:23;;;;;;;9.00;8.15;;;;;;;3.72;62.05;98936.97;10497146;28;20425;-65
2020/12/30 17:16:25;;;;;;;9.25;8.35;;;;;;;3.72;62.64;98932.63;10497628;28;20079;-64
2020/12/30 17:21:26;;;;;;;10.07;7.50;;;;;;;3.72;62.47;98936.97;10498517;28;20037;-66
2020/12/30 17:26:27;;;;;;;14.23;8.95;;;;;;;3.68;62.90;98945.72;10498040;28;20115;-65
2020/12/30 17:31:31;;;;;;;10.10;8.70;;;;;;;3.59;63.25;98945.91;10498044;28;20098;-66
2020/12/30 17:36:32;;;;;;;10.38;9.27;;;;;;;3.69;63.29;98944.81;10498203;28;20128;-65
2020/12/30 17:41:33;;;;;;;11.60;10.50;;;;;;;3.52;63.63;98948.63;10497447;28;20114;-64
2020/12/30 17:46:39;;;;;;;6.65;5.95;;;;;;;3.41;63.63;98954.91;10497762;28;20051;-64
2020/12/30 17:51:40;;;;;;;5.40;4.90;;;;;;;3.43;63.42;98969.59;10497088;28;20076;-65
2020/12/30 17:56:42;;;;;;;4.43;4.03;;;;;;;3.31;63.42;98963.78;10498042;28;20090;-65
2020/12/30 18:01:49;;;;;;;7.60;6.80;;;;;;;3.22;63.92;98970.84;10498537;28;20048;-65
2020/12/30 18:06:53;;;;;;;9.67;8.77;;;;;;;3.41;63.71;98973.09;10498268;28;20049;-64
2020/12/30 18:11:55;;;;;;;13.18;11.98;;;;;;;3.31;63.86;98981.97;10495764;28;20132;-64
2020/12/30 18:16:57;;;;;;;16.98;15.18;;;;;;;3.51;63.57;98983.28;10497085;28;20073;-64
2020/12/30 18:21:59;;;;;;;11.43;10.32;;;;;;;3.37;64.08;98980.13;10498046;28;20064;-66
2020/12/30 18:27:00;;;;;;;9.80;8.90;;;;;;;3.29;64.27;98984.59;10496777;28;20136;-65
2020/12/30 18:32:01;;;;;;;14.15;11.18;;;;;;;3.40;64.29;98982.63;10497938;28;20448;-64
2020/12/30 18:37:02;;;;;;;10.82;9.82;;;;;;;3.46;63.99;98984.28;10502700;28;20136;-65
2020/12/30 18:42:04;;;;;;;10.88;9.82;;;;;;;3.27;64.36;98978.56;10503996;28;20502;-65
2020/12/30 18:47:05;;;;;;;11.65;10.55;;;;;;;3.06;64.91;98979.84;10504783;28;20567;-65
2020/12/30 18:52:06;;;;;;;12.68;11.60;;;;;;;3.10;64.96;98991.00;10504468;28;20041;-65
2020/12/30 18:57:07;;;;;;;11.05;10.05;;;;;;;3.20;64.48;98988.22;10503582;28;20045;-63
2020/12/30 19:02:08;;;;;;;12.70;11.57;;;;;;;3.23;64.75;98992.47;10504638;28;20074;-65
2020/12/30 19:07:10;;;;;;;13.52;12.30;;;;;;;3.33;64.59;98983.66;10502938;28;20044;-66
2020/12/30 19:12:11;;;;;;;12.77;11.55;;;;;;;3.67;63.11;98989.00;10504857;28;20048;-66
2020/12/30 19:17:13;;;;;;;12.95;11.85;;;;;;;3.10;64.37;98994.47;10486194;28;20040;-65
2020/12/30 19:22:18;;;;;;;13.77;12.43;;;;;;;3.04;64.58;99007.53;10503341;28;20079;-65
2020/12/30 19:27:19;;;;;;;13.05;11.80;;;;;;;2.89;65.17;99005.22;10503725;28;20048;-65
2020/12/30 19:32:20;;;;;;;12.07;11.00;;;;;;;2.95;64.96;99000.78;10503428;28;20452;-66
2020/12/30 19:37:21;;;;;;;13.52;12.18;;;;;;;3.41;64.24;99012.06;10503366;28;20064;-65
2020/12/30 19:42:22;;;;;;;12.32;11.23;;;;;;;3.11;64.82;99018.69;10501567;28;20490;-66
2020/12/30 19:47:24;;;;;;;11.73;10.70;;;;;;;3.03;65.07;99011.88;10501135;28;20421;-66
2020/12/30 19:52:25;;;;;;;12.60;11.48;;;;;;;3.01;65.51;99018.88;10502429;28;20068;-65
2020/12/30 19:57:27;;;;;;;13.27;12.07;;;;;;;2.91;65.47;99009.50;10502852;28;20041;-65
2020/12/30 20:02:29;;;;;;;13.65;12.45;;;;;;;2.77;65.71;99014.94;10502126;28;20051;-66
2020/12/30 20:07:33;;;;;;;11.45;10.45;;;;;;;2.52;66.14;99014.50;10502331;28;20513;-66
2020/12/30 20:12:34;;;;;;;11.63;10.52;;;;;;;2.48;66.44;99024.94;10502749;28;20078;-65
2020/12/30 20:17:36;;;;;;;14.25;12.23;;;;;;;2.48;66.41;99028.38;10501479;28;20482;-65
2020/12/30 20:22:38;;;;;;;11.77;10.77;;;;;;;2.43;66.56;99026.72;10501771;28;20066;-67
2020/12/30 20:27:39;;;;;;;12.45;11.30;;;;;;;2.76;65.94;99030.53;10499959;28;20513;-65
2020/12/30 20:32:40;;;;;;;11.88;10.73;;;;;;;2.62;65.90;99028.16;10500759;28;20052;-65
2020/12/30 20:37:43;;;;;;;11.20;10.20;;;;;;;2.74;65.33;99032.28;10501108;28;20040;-65
2020/12/30 20:42:45;;;;;;;9.43;8.63;;;;;;;2.64;64.97;99028.13;10501032;28;20044;-64
2020/12/30 20:47:47;;;;;;;5.57;4.57;;;;;;;2.84;63.62;99033.88;10500518;28;20052;-65
2020/12/30 20:52:51;;;;;;;5.35;3.42;;;;;;;2.92;63.01;99038.91;10500738;28;20044;-65
2020/12/30 20:57:52;;;;;;;4.65;2.47;;;;;;;3.09;62.16;99046.41;10499172;28;20045;-65
2020/12/30 21:02:54;;;;;;;4.95;3.33;;;;;;;3.09;62.43;99046.41;10500381;28;20037;-66
2020/12/30 21:07:56;;;;;;;6.40;2.60;;;;;;;2.66;63.40;99040.22;10501037;28;20474;-67
2020/12/30 21:12:57;;;;;;;2.28;2.00;;;;;;;2.87;62.41;99043.31;10500328;28;20039;-65
2020/12/30 21:17:58;;;;;;;3.67;2.08;;;;;;;2.99;61.73;99043.97;10500117;28;20195;-65
2020/12/30 21:22:59;;;;;;;5.75;2.65;;;;;;;3.07;61.40;99055.97;10499135;28;20060;-65
2020/12/30 21:28:01;;;;;;;2.60;2.40;;;;;;;2.90;61.63;99056.25;10499251;28;20395;-66
2020/12/30 21:33:04;;;;;;;2.67;1.90;;;;;;;2.93;61.38;99049.28;10498611;28;20075;-64
2020/12/30 21:38:05;;;;;;;6.97;2.53;;;;;;;2.74;62.17;99068.59;10498236;28;20356;-66
2020/12/30 21:43:06;;;;;;;3.65;2.30;;;;;;;2.76;61.77;99062.53;10498148;28;20153;-65
2020/12/30 21:48:07;;;;;;;2.83;2.10;;;;;;;2.50;62.64;99064.66;10498219;28;20068;-66
2020/12/30 21:53:08;;;;;;;2.35;2.15;;;;;;;2.55;62.56;99064.59;10498380;28;20037;-67
2020/12/30 21:58:09;;;;;;;3.13;2.08;;;;;;;2.64;62.57;99065.31;10498328;28;20589;-65
2020/12/30 22:03:11;;;;;;;3.67;2.40;;;;;;;2.48;62.54;99067.28;10498171;28;20036;-65
2020/12/30 22:08:12;;;;;;;2.40;1.98;;;;;;;2.52;62.63;99065.47;10497962;28;20079;-65
2020/12/30 22:13:13;;;;;;;5.10;2.88;;;;;;;2.56;62.71;99071.50;10507548;28;20094;-65
2020/12/30 22:18:14;;;;;;;4.07;2.90;;;;;;;2.66;62.32;99084.31;10506624;28;20113;-65
2020/12/30 22:23:15;;;;;;;4.10;2.85;;;;;;;2.55;62.60;99080.16;10507379;28;20037;-65
2020/12/30 22:28:16;;;;;;;4.18;2.22;;;;;;;2.55;62.29;99081.00;10506483;28;20075;-63
2020/12/30 22:33:18;;;;;;;3.47;2.40;;;;;;;2.32;62.97;99077.91;10506999;28;20045;-65
2020/12/30 22:38:19;;;;;;;4.30;2.45;;;;;;;2.19;63.30;99087.56;10506224;28;20124;-66
2020/12/30 22:43:20;;;;;;;3.35;2.20;;;;;;;2.29;63.41;99083.97;10505533;28;20045;-65
2020/12/30 22:48:25;;;;;;;4.28;2.30;;;;;;;2.44;62.74;99086.38;10505089;28;20107;-64
2020/12/30 22:53:32;;;;;;;4.20;2.15;;;;;;;2.36;62.83;99090.81;10505768;28;20080;-63
2020/12/30 22:58:33;;;;;;;3.23;2.50;;;;;;;2.30;62.99;99090.00;10505230;28;20090;-64
2020/12/30 23:03:35;;;;;;;3.78;2.15;;;;;;;2.38;62.77;99085.56;10503461;28;20051;-66
2020/12/30 23:08:36;;;;;;;4.57;2.20;;;;;;;2.36;62.75;99083.03;10504621;28;20052;-65
2020/12/30 23:13:37;;;;;;;2.88;2.13;;;;;;;2.31;62.69;99081.38;10504367;28;20045;-65
2020/12/30 23:18:39;;;;;;;3.90;2.00;;;;;;;2.30;62.69;99085.69;10504675;28;20075;-65
2020/12/30 23:23:40;;;;;;;3.33;2.03;;;;;;;2.28;62.63;99082.25;10503491;28;20058;-66
2020/12/30 23:28:42;;;;;;;4.00;1.90;;;;;;;2.07;63.07;99075.63;10504004;28;20460;-65
2020/12/30 23:33:43;;;;;;;3.15;1.77;;;;;;;2.22;63.03;99082.34;10503477;28;20123;-65
2020/12/30 23:38:44;;;;;;;3.25;1.80;;;;;;;2.09;63.30;99094.63;10503607;28;20111;-65